sensor_id;sensor_type;location;lat;lon;timestamp;temperature;humidity
71523;HTU21D;59343;51.102;5.884;2023-04-30T13:05:44;23.27;39.64
71523;HTU21D;59343;51.102;5.884;2023-04-30T13:08:39;23.03;39.62
71523;HTU21D;59343;51.102;5.884;2023-04-30T13:11:06;22.84;39.94
71523;HTU21D;59343;51.102;5.884;2023-04-30T13:13:35;22.91;40.31
71523;HTU21D;59343;51.102;5.884;2023-04-30T13:16:07;23.10;40.60
71523;HTU21D;59343;51.102;5.884;2023-04-30T13:18:34;23.32;40.24
71523;HTU21D;59343;51.102;5.884;2023-04-30T13:21:22;23.57;39.49
71523;HTU21D;59343;51.102;5.884;2023-04-30T13:36:37;23.88;38.48
71523;HTU21D;59343;51.102;5.884;2023-04-30T13:45:07;24.28;38.80
71523;HTU21D;59343;51.102;5.884;2023-04-30T13:47:34;24.29;38.40
71523;HTU21D;59343;51.102;5.884;2023-04-30T13:50:02;24.13;38.29
71523;HTU21D;59343;51.102;5.884;2023-04-30T14:00:03;23.47;39.75
71523;HTU21D;59343;51.102;5.884;2023-04-30T14:02:36;23.41;39.23
71523;HTU21D;59343;51.102;5.884;2023-04-30T14:05:02;23.46;38.85
71523;HTU21D;59343;51.102;5.884;2023-04-30T14:07:30;23.58;39.14
71523;HTU21D;59343;51.102;5.884;2023-04-30T14:09:57;23.77;38.88
71523;HTU21D;59343;51.102;5.884;2023-04-30T14:12:47;23.83;38.85
71523;HTU21D;59343;51.102;5.884;2023-04-30T14:15:23;23.65;38.24
71523;HTU21D;59343;51.102;5.884;2023-04-30T14:31:14;22.80;38.98
71523;HTU21D;59343;51.102;5.884;2023-04-30T14:33:40;22.54;39.35
71523;HTU21D;59343;51.102;5.884;2023-04-30T14:36:07;22.42;39.83
71523;HTU21D;59343;51.102;5.884;2023-04-30T14:38:33;22.48;40.05
71523;HTU21D;59343;51.102;5.884;2023-04-30T14:40:59;22.62;39.85
71523;HTU21D;59343;51.102;5.884;2023-04-30T14:43:25;22.88;39.36
71523;HTU21D;59343;51.102;5.884;2023-04-30T14:45:51;23.17;38.94
71523;HTU21D;59343;51.102;5.884;2023-04-30T14:48:17;23.42;38.23
71523;HTU21D;59343;51.102;5.884;2023-04-30T14:50:43;23.42;37.98
71523;HTU21D;59343;51.102;5.884;2023-04-30T14:53:10;23.47;38.59
71523;HTU21D;59343;51.102;5.884;2023-04-30T14:55:38;23.65;38.07
71523;HTU21D;59343;51.102;5.884;2023-04-30T14:58:04;23.68;37.34
71523;HTU21D;59343;51.102;5.884;2023-04-30T15:00:31;23.59;37.58
71523;HTU21D;59343;51.102;5.884;2023-04-30T15:02:58;23.62;37.59
71523;HTU21D;59343;51.102;5.884;2023-04-30T15:05:24;23.58;37.44
71523;HTU21D;59343;51.102;5.884;2023-04-30T15:07:51;23.62;38.28
71523;HTU21D;59343;51.102;5.884;2023-04-30T15:10:17;23.74;37.59
71523;HTU21D;59343;51.102;5.884;2023-04-30T15:12:43;23.79;37.97
71523;HTU21D;59343;51.102;5.884;2023-04-30T15:15:09;23.73;38.10
71523;HTU21D;59343;51.102;5.884;2023-04-30T15:17:35;23.60;37.78
71523;HTU21D;59343;51.102;5.884;2023-04-30T15:20:06;23.39;38.08
71523;HTU21D;59343;51.102;5.884;2023-04-30T15:22:32;23.21;38.17
71523;HTU21D;59343;51.102;5.884;2023-04-30T15:24:58;23.00;38.72
71523;HTU21D;59343;51.102;5.884;2023-04-30T15:27:26;22.69;38.94
71523;HTU21D;59343;51.102;5.884;2023-04-30T15:29:52;22.54;39.13
71523;HTU21D;59343;51.102;5.884;2023-04-30T15:32:19;22.42;39.22
71523;HTU21D;59343;51.102;5.884;2023-04-30T15:34:45;22.41;39.10
71523;HTU21D;59343;51.102;5.884;2023-04-30T15:37:11;22.51;38.86
71523;HTU21D;59343;51.102;5.884;2023-04-30T15:39:37;22.60;38.85
71523;HTU21D;59343;51.102;5.884;2023-04-30T15:42:03;22.73;38.57
71523;HTU21D;59343;51.102;5.884;2023-04-30T15:44:29;22.85;38.62
71523;HTU21D;59343;51.102;5.884;2023-04-30T15:46:55;22.94;38.25
71523;HTU21D;59343;51.102;5.884;2023-04-30T15:49:21;23.03;38.42
71523;HTU21D;59343;51.102;5.884;2023-04-30T15:51:50;23.14;38.59
71523;HTU21D;59343;51.102;5.884;2023-04-30T15:54:15;23.20;38.27
71523;HTU21D;59343;51.102;5.884;2023-04-30T15:56:42;23.16;38.14
71523;HTU21D;59343;51.102;5.884;2023-04-30T15:59:12;23.15;38.08
71523;HTU21D;59343;51.102;5.884;2023-04-30T16:01:41;23.06;38.25
71523;HTU21D;59343;51.102;5.884;2023-04-30T16:04:08;22.95;38.10
71523;HTU21D;59343;51.102;5.884;2023-04-30T16:06:34;22.82;38.32
71523;HTU21D;59343;51.102;5.884;2023-04-30T16:09:01;22.65;38.79
71523;HTU21D;59343;51.102;5.884;2023-04-30T16:11:32;22.51;39.29
71523;HTU21D;59343;51.102;5.884;2023-04-30T16:13:58;22.33;39.33
71523;HTU21D;59343;51.102;5.884;2023-04-30T16:16:24;22.10;39.59
71523;HTU21D;59343;51.102;5.884;2023-04-30T16:18:49;21.90;40.04
71523;HTU21D;59343;51.102;5.884;2023-04-30T16:21:16;21.78;40.30
71523;HTU21D;59343;51.102;5.884;2023-04-30T16:23:42;21.70;40.65
71523;HTU21D;59343;51.102;5.884;2023-04-30T16:26:08;21.63;40.90
71523;HTU21D;59343;51.102;5.884;2023-04-30T16:28:34;21.62;40.93
71523;HTU21D;59343;51.102;5.884;2023-04-30T16:31:00;21.58;41.18
71523;HTU21D;59343;51.102;5.884;2023-04-30T16:33:26;21.54;41.44
71523;HTU21D;59343;51.102;5.884;2023-04-30T16:35:52;21.52;41.36
71523;HTU21D;59343;51.102;5.884;2023-04-30T16:38:19;21.46;41.62
71523;HTU21D;59343;51.102;5.884;2023-04-30T16:40:45;21.42;42.00
71523;HTU21D;59343;51.102;5.884;2023-04-30T16:43:11;21.47;42.02
71523;HTU21D;59343;51.102;5.884;2023-04-30T16:45:37;21.47;41.59
71523;HTU21D;59343;51.102;5.884;2023-04-30T16:48:03;21.38;41.90
71523;HTU21D;59343;51.102;5.884;2023-04-30T16:50:30;21.37;42.04
71523;HTU21D;59343;51.102;5.884;2023-04-30T16:52:56;21.40;41.88
71523;HTU21D;59343;51.102;5.884;2023-04-30T16:55:22;21.37;41.74
71523;HTU21D;59343;51.102;5.884;2023-04-30T16:57:48;21.33;41.56
71523;HTU21D;59343;51.102;5.884;2023-04-30T17:00:15;21.21;41.34
71523;HTU21D;59343;51.102;5.884;2023-04-30T17:02:42;21.09;41.81
71523;HTU21D;59343;51.102;5.884;2023-04-30T17:05:10;21.03;41.81
71523;HTU21D;59343;51.102;5.884;2023-04-30T17:07:36;21.00;42.01
71523;HTU21D;59343;51.102;5.884;2023-04-30T17:10:03;20.95;42.35
71523;HTU21D;59343;51.102;5.884;2023-04-30T17:12:29;20.91;42.58
71523;HTU21D;59343;51.102;5.884;2023-04-30T17:14:55;20.84;42.65
71523;HTU21D;59343;51.102;5.884;2023-04-30T17:17:22;20.84;42.44
71523;HTU21D;59343;51.102;5.884;2023-04-30T17:19:48;20.85;42.50
71523;HTU21D;59343;51.102;5.884;2023-04-30T17:22:14;20.79;42.66
71523;HTU21D;59343;51.102;5.884;2023-04-30T17:24:44;20.77;42.65
71523;HTU21D;59343;51.102;5.884;2023-04-30T17:27:11;20.72;42.77
71523;HTU21D;59343;51.102;5.884;2023-04-30T17:29:37;20.66;43.00
71523;HTU21D;59343;51.102;5.884;2023-04-30T17:32:03;20.63;43.18
71523;HTU21D;59343;51.102;5.884;2023-04-30T17:34:29;20.61;43.19
71523;HTU21D;59343;51.102;5.884;2023-04-30T17:36:59;20.50;43.29
71523;HTU21D;59343;51.102;5.884;2023-04-30T17:39:24;20.42;43.53
71523;HTU21D;59343;51.102;5.884;2023-04-30T17:41:51;20.36;43.64
71523;HTU21D;59343;51.102;5.884;2023-04-30T17:44:17;20.27;43.70
71523;HTU21D;59343;51.102;5.884;2023-04-30T17:46:44;20.18;43.96
71523;HTU21D;59343;51.102;5.884;2023-04-30T17:49:10;20.14;44.16
71523;HTU21D;59343;51.102;5.884;2023-04-30T17:51:36;20.10;44.20
71523;HTU21D;59343;51.102;5.884;2023-04-30T17:54:02;20.05;44.35
71523;HTU21D;59343;51.102;5.884;2023-04-30T17:56:28;19.95;44.28
71523;HTU21D;59343;51.102;5.884;2023-04-30T17:58:56;19.88;44.40
71523;HTU21D;59343;51.102;5.884;2023-04-30T18:01:22;19.86;44.61
71523;HTU21D;59343;51.102;5.884;2023-04-30T18:03:49;19.83;44.56
71523;HTU21D;59343;51.102;5.884;2023-04-30T18:06:15;19.79;44.59
71523;HTU21D;59343;51.102;5.884;2023-04-30T18:08:41;19.74;44.74
71523;HTU21D;59343;51.102;5.884;2023-04-30T18:11:07;19.73;44.87
71523;HTU21D;59343;51.102;5.884;2023-04-30T18:13:33;19.69;44.90
71523;HTU21D;59343;51.102;5.884;2023-04-30T18:16:00;19.59;45.16
71523;HTU21D;59343;51.102;5.884;2023-04-30T18:18:25;19.50;45.51
71523;HTU21D;59343;51.102;5.884;2023-04-30T18:20:51;19.41;45.91
71523;HTU21D;59343;51.102;5.884;2023-04-30T18:23:17;19.33;46.15
71523;HTU21D;59343;51.102;5.884;2023-04-30T18:25:43;19.28;46.24
71523;HTU21D;59343;51.102;5.884;2023-04-30T18:28:09;19.25;46.35
71523;HTU21D;59343;51.102;5.884;2023-04-30T18:30:35;19.26;46.60
71523;HTU21D;59343;51.102;5.884;2023-04-30T18:33:03;19.23;46.61
71523;HTU21D;59343;51.102;5.884;2023-04-30T18:35:29;19.15;46.74
71523;HTU21D;59343;51.102;5.884;2023-04-30T18:37:56;19.06;46.94
71523;HTU21D;59343;51.102;5.884;2023-04-30T18:40:22;18.98;47.00
71523;HTU21D;59343;51.102;5.884;2023-04-30T18:42:48;18.94;47.22
71523;HTU21D;59343;51.102;5.884;2023-04-30T18:45:14;18.89;47.53
71523;HTU21D;59343;51.102;5.884;2023-04-30T18:47:40;18.87;47.89
71523;HTU21D;59343;51.102;5.884;2023-04-30T18:50:07;18.82;48.18
71523;HTU21D;59343;51.102;5.884;2023-04-30T18:52:36;18.78;48.28
71523;HTU21D;59343;51.102;5.884;2023-04-30T18:55:02;18.67;48.33
71523;HTU21D;59343;51.102;5.884;2023-04-30T18:57:28;18.56;48.31
71523;HTU21D;59343;51.102;5.884;2023-04-30T18:59:54;18.48;48.51
71523;HTU21D;59343;51.102;5.884;2023-04-30T19:02:20;18.39;48.87
71523;HTU21D;59343;51.102;5.884;2023-04-30T19:04:48;18.29;48.91
71523;HTU21D;59343;51.102;5.884;2023-04-30T19:07:15;18.25;49.14
71523;HTU21D;59343;51.102;5.884;2023-04-30T19:09:41;18.21;49.18
71523;HTU21D;59343;51.102;5.884;2023-04-30T19:12:12;18.19;49.26
71523;HTU21D;59343;51.102;5.884;2023-04-30T19:14:40;18.15;49.49
71523;HTU21D;59343;51.102;5.884;2023-04-30T19:17:06;18.13;49.57
71523;HTU21D;59343;51.102;5.884;2023-04-30T19:19:32;18.09;49.74
71523;HTU21D;59343;51.102;5.884;2023-04-30T19:21:57;18.06;49.89
71523;HTU21D;59343;51.102;5.884;2023-04-30T19:24:23;18.02;49.98
71523;HTU21D;59343;51.102;5.884;2023-04-30T19:27:11;17.97;50.14
71523;HTU21D;59343;51.102;5.884;2023-04-30T19:30:51;17.89;50.25
71523;HTU21D;59343;51.102;5.884;2023-04-30T19:33:24;17.87;50.46
71523;HTU21D;59343;51.102;5.884;2023-04-30T19:35:51;17.85;50.52
71523;HTU21D;59343;51.102;5.884;2023-04-30T19:38:20;17.82;50.52
71523;HTU21D;59343;51.102;5.884;2023-04-30T19:40:48;17.77;50.68
71523;HTU21D;59343;51.102;5.884;2023-04-30T19:43:15;17.72;50.99
71523;HTU21D;59343;51.102;5.884;2023-04-30T19:45:46;17.67;50.93
71523;HTU21D;59343;51.102;5.884;2023-04-30T19:48:12;17.64;51.24
71523;HTU21D;59343;51.102;5.884;2023-04-30T19:50:43;17.63;51.34
71523;HTU21D;59343;51.102;5.884;2023-04-30T19:53:14;17.59;51.23
71523;HTU21D;59343;51.102;5.884;2023-04-30T19:55:41;17.51;51.27
71523;HTU21D;59343;51.102;5.884;2023-04-30T19:58:07;17.46;51.41
71523;HTU21D;59343;51.102;5.884;2023-04-30T20:00:42;17.44;51.56
71523;HTU21D;59343;51.102;5.884;2023-04-30T20:03:10;17.37;51.75
71523;HTU21D;59343;51.102;5.884;2023-04-30T20:05:37;17.33;51.94
71523;HTU21D;59343;51.102;5.884;2023-04-30T20:08:06;17.31;52.10
71523;HTU21D;59343;51.102;5.884;2023-04-30T20:10:34;17.29;52.27
71523;HTU21D;59343;51.102;5.884;2023-04-30T20:13:04;17.28;52.37
71523;HTU21D;59343;51.102;5.884;2023-04-30T20:15:30;17.26;52.41
71523;HTU21D;59343;51.102;5.884;2023-04-30T20:17:57;17.25;52.54
71523;HTU21D;59343;51.102;5.884;2023-04-30T20:20:24;17.23;52.67
71523;HTU21D;59343;51.102;5.884;2023-04-30T20:22:52;17.18;52.93
71523;HTU21D;59343;51.102;5.884;2023-04-30T20:25:21;17.15;52.98
71523;HTU21D;59343;51.102;5.884;2023-04-30T20:27:50;17.10;53.15
71523;HTU21D;59343;51.102;5.884;2023-04-30T20:30:17;17.05;53.66
71523;HTU21D;59343;51.102;5.884;2023-04-30T20:32:43;17.04;53.63
71523;HTU21D;59343;51.102;5.884;2023-04-30T20:35:11;17.02;53.76
71523;HTU21D;59343;51.102;5.884;2023-04-30T20:37:37;17.00;53.94
71523;HTU21D;59343;51.102;5.884;2023-04-30T20:40:04;16.98;54.03
71523;HTU21D;59343;51.102;5.884;2023-04-30T20:42:33;16.96;54.06
71523;HTU21D;59343;51.102;5.884;2023-04-30T20:45:00;16.93;54.15
71523;HTU21D;59343;51.102;5.884;2023-04-30T20:47:30;16.92;54.37
71523;HTU21D;59343;51.102;5.884;2023-04-30T20:50:05;16.95;54.30
71523;HTU21D;59343;51.102;5.884;2023-04-30T20:52:39;16.93;54.41
71523;HTU21D;59343;51.102;5.884;2023-04-30T20:55:05;16.92;54.54
71523;HTU21D;59343;51.102;5.884;2023-04-30T20:57:32;16.86;54.63
71523;HTU21D;59343;51.102;5.884;2023-04-30T20:59:59;16.84;54.72
71523;HTU21D;59343;51.102;5.884;2023-04-30T21:02:28;16.82;54.76
71523;HTU21D;59343;51.102;5.884;2023-04-30T21:04:54;16.79;54.97
71523;HTU21D;59343;51.102;5.884;2023-04-30T21:07:23;16.76;55.17
71523;HTU21D;59343;51.102;5.884;2023-04-30T21:09:50;16.72;55.26
71523;HTU21D;59343;51.102;5.884;2023-04-30T21:12:23;16.69;55.29
71523;HTU21D;59343;51.102;5.884;2023-04-30T21:14:50;16.62;55.27
71523;HTU21D;59343;51.102;5.884;2023-04-30T21:17:19;16.59;55.61
71523;HTU21D;59343;51.102;5.884;2023-04-30T21:19:46;16.55;55.37
71523;HTU21D;59343;51.102;5.884;2023-04-30T21:22:13;16.52;55.53
71523;HTU21D;59343;51.102;5.884;2023-04-30T21:24:43;16.49;55.49
71523;HTU21D;59343;51.102;5.884;2023-04-30T21:27:10;16.46;55.63
71523;HTU21D;59343;51.102;5.884;2023-04-30T21:29:41;16.45;55.77
71523;HTU21D;59343;51.102;5.884;2023-04-30T21:32:09;16.45;55.65
71523;HTU21D;59343;51.102;5.884;2023-04-30T21:34:35;16.40;55.59
71523;HTU21D;59343;51.102;5.884;2023-04-30T21:37:04;16.35;55.77
71523;HTU21D;59343;51.102;5.884;2023-04-30T21:39:36;16.35;55.73
71523;HTU21D;59343;51.102;5.884;2023-04-30T21:42:02;16.33;55.71
71523;HTU21D;59343;51.102;5.884;2023-04-30T21:44:30;16.32;55.71
71523;HTU21D;59343;51.102;5.884;2023-04-30T21:46:57;16.29;56.05
71523;HTU21D;59343;51.102;5.884;2023-04-30T21:49:24;16.27;56.24
71523;HTU21D;59343;51.102;5.884;2023-04-30T21:51:53;16.24;56.39
71523;HTU21D;59343;51.102;5.884;2023-04-30T21:54:21;16.21;56.37
71523;HTU21D;59343;51.102;5.884;2023-04-30T21:56:53;16.16;56.40
71523;HTU21D;59343;51.102;5.884;2023-04-30T21:59:36;16.14;56.69
71523;HTU21D;59343;51.102;5.884;2023-04-30T22:02:06;16.12;56.61
71523;HTU21D;59343;51.102;5.884;2023-04-30T22:04:36;16.08;56.63
71523;HTU21D;59343;51.102;5.884;2023-04-30T22:07:04;16.02;56.88
71523;HTU21D;59343;51.102;5.884;2023-04-30T22:09:31;15.97;57.22
71523;HTU21D;59343;51.102;5.884;2023-04-30T22:12:01;15.93;57.53
71523;HTU21D;59343;51.102;5.884;2023-04-30T22:14:32;15.88;57.49
71523;HTU21D;59343;51.102;5.884;2023-04-30T22:16:59;15.87;57.67
71523;HTU21D;59343;51.102;5.884;2023-04-30T22:19:28;15.83;57.74
71523;HTU21D;59343;51.102;5.884;2023-04-30T22:21:54;15.77;57.47
71523;HTU21D;59343;51.102;5.884;2023-04-30T22:24:25;15.72;57.39
71523;HTU21D;59343;51.102;5.884;2023-04-30T22:26:51;15.68;57.87
71523;HTU21D;59343;51.102;5.884;2023-04-30T22:29:18;15.68;58.00
71523;HTU21D;59343;51.102;5.884;2023-04-30T22:31:52;15.65;57.98
71523;HTU21D;59343;51.102;5.884;2023-04-30T22:34:19;15.60;57.88
71523;HTU21D;59343;51.102;5.884;2023-04-30T22:36:49;15.56;58.22
71523;HTU21D;59343;51.102;5.884;2023-04-30T22:39:16;15.52;58.47
71523;HTU21D;59343;51.102;5.884;2023-04-30T22:41:43;15.48;58.46
71523;HTU21D;59343;51.102;5.884;2023-04-30T22:44:17;15.43;58.97
71523;HTU21D;59343;51.102;5.884;2023-04-30T22:46:44;15.42;59.06
71523;HTU21D;59343;51.102;5.884;2023-04-30T22:49:14;15.39;58.84
71523;HTU21D;59343;51.102;5.884;2023-04-30T22:51:42;15.37;58.82
71523;HTU21D;59343;51.102;5.884;2023-04-30T22:54:14;15.32;59.18
71523;HTU21D;59343;51.102;5.884;2023-04-30T22:56:43;15.26;59.02
71523;HTU21D;59343;51.102;5.884;2023-04-30T22:59:12;15.18;59.53
71523;HTU21D;59343;51.102;5.884;2023-04-30T23:01:39;15.14;59.88
71523;HTU21D;59343;51.102;5.884;2023-04-30T23:04:06;15.11;59.88
71523;HTU21D;59343;51.102;5.884;2023-04-30T23:06:32;15.09;59.65
71523;HTU21D;59343;51.102;5.884;2023-04-30T23:08:58;15.03;59.61
71523;HTU21D;59343;51.102;5.884;2023-04-30T23:11:25;15.00;59.53
71523;HTU21D;59343;51.102;5.884;2023-04-30T23:13:53;14.96;59.73
71523;HTU21D;59343;51.102;5.884;2023-04-30T23:16:23;14.93;60.07
71523;HTU21D;59343;51.102;5.884;2023-04-30T23:18:50;14.91;60.61
71523;HTU21D;59343;51.102;5.884;2023-04-30T23:21:18;14.87;60.81
71523;HTU21D;59343;51.102;5.884;2023-04-30T23:23:45;14.84;60.84
71523;HTU21D;59343;51.102;5.884;2023-04-30T23:26:11;14.81;61.31
71523;HTU21D;59343;51.102;5.884;2023-04-30T23:28:38;14.77;61.44
71523;HTU21D;59343;51.102;5.884;2023-04-30T23:31:15;14.73;61.40
71523;HTU21D;59343;51.102;5.884;2023-04-30T23:33:45;14.68;61.31
71523;HTU21D;59343;51.102;5.884;2023-04-30T23:36:12;14.63;61.30
71523;HTU21D;59343;51.102;5.884;2023-04-30T23:38:41;14.59;61.30
71523;HTU21D;59343;51.102;5.884;2023-04-30T23:41:08;14.53;61.71
71523;HTU21D;59343;51.102;5.884;2023-04-30T23:43:37;14.51;61.72
71523;HTU21D;59343;51.102;5.884;2023-04-30T23:46:04;14.42;61.66
71523;HTU21D;59343;51.102;5.884;2023-04-30T23:48:33;14.37;61.74
71523;HTU21D;59343;51.102;5.884;2023-04-30T23:51:02;14.33;62.13
